createdAt,value
2022-10-24T00:01:56.796Z,100921.31
2022-10-24T00:05:20.154Z,100915.34
2022-10-24T00:08:46.889Z,100922.72
2022-10-24T00:12:07.849Z,100914.84
2022-10-24T00:15:21.290Z,100906.97
2022-10-24T00:18:28.555Z,100911.13
2022-10-24T00:21:35.500Z,100907.59
2022-10-24T00:24:56.023Z,100911.94
2022-10-24T00:27:59.291Z,100917.88
2022-10-24T00:31:05.158Z,100911.44
2022-10-24T00:34:15.498Z,100916.09
2022-10-24T00:40:30.812Z,100901.03
2022-10-24T00:43:34.540Z,100910.31
2022-10-24T00:46:51.103Z,100907.91
2022-10-24T00:50:16.053Z,100903.63
2022-10-24T00:53:27.110Z,100900.63
2022-10-24T00:56:54.956Z,100896.34
2022-10-24T01:00:22.119Z,100898.09
2022-10-24T01:03:38.134Z,100884.56
2022-10-24T01:07:17.007Z,100893.44
2022-10-24T01:13:47.359Z,100881.66
2022-10-24T01:17:35.811Z,100884.25
2022-10-24T01:20:55.848Z,100884.88
2022-10-24T01:24:18.043Z,100890.03
2022-10-24T01:27:33.584Z,100896.09
2022-10-24T01:30:57.221Z,100901.56
2022-10-24T01:34:31.822Z,100899.81
2022-10-24T01:37:52.034Z,100890.84
2022-10-24T01:41:05.386Z,100879.72
2022-10-24T01:44:28.991Z,100868.53
2022-10-24T01:47:44.431Z,100880.22
2022-10-24T01:51:00.309Z,100875.38
2022-10-24T01:54:14.467Z,100860.16
2022-10-24T01:57:40.009Z,100874.41
2022-10-24T02:01:04.224Z,100890.44
2022-10-24T02:04:18.169Z,100881.78
2022-10-24T02:07:41.000Z,100872.78
2022-10-24T02:11:01.287Z,100870.63
2022-10-24T02:14:14.354Z,100874.41
2022-10-24T02:17:37.950Z,100873.28
2022-10-24T02:21:08.971Z,100852.66
2022-10-24T02:24:59.736Z,100850.38
2022-10-24T02:28:26.525Z,100857.13
2022-10-24T02:31:36.240Z,100849.13
2022-10-24T02:34:57.678Z,100852.66
2022-10-24T02:38:23.358Z,100859.03
2022-10-24T02:41:34.294Z,100852.78
2022-10-24T02:44:42.523Z,100846.63
2022-10-24T02:47:52.861Z,100854.22
2022-10-24T02:51:01.883Z,100858.34
2022-10-24T02:54:12.289Z,100848.69
2022-10-24T02:57:28.593Z,100848.69
2022-10-24T03:00:41.569Z,100834.53
2022-10-24T03:04:04.724Z,100842.00
2022-10-24T03:07:35.661Z,100841.19
2022-10-24T03:10:53.832Z,100828.69
2022-10-24T03:14:16.623Z,100834.63
2022-10-24T03:17:46.052Z,100835.75
2022-10-24T03:21:09.754Z,100846.75
2022-10-24T03:24:43.939Z,100839.69
2022-10-24T03:28:02.236Z,100831.09
2022-10-24T03:31:20.883Z,100820.81
2022-10-24T03:34:42.850Z,100819.19
2022-10-24T03:38:00.774Z,100815.28
2022-10-24T03:41:05.722Z,100822.44
2022-10-24T03:44:09.437Z,100827.78
2022-10-24T03:47:17.963Z,100832.97
2022-10-24T03:50:34.245Z,100834.78
2022-10-24T03:53:57.525Z,100825.66
2022-10-24T03:57:11.258Z,100817.09
2022-10-24T04:00:30.532Z,100834.25
2022-10-24T04:03:57.010Z,100833.75
2022-10-24T04:07:17.200Z,100838.59
2022-10-24T04:10:26.106Z,100835.88
2022-10-24T04:13:41.478Z,100849.28
2022-10-24T04:16:45.991Z,100845.06
2022-10-24T04:19:59.862Z,100846.66
2022-10-24T04:23:22.767Z,100852.94
2022-10-24T04:26:40.355Z,100857.75
2022-10-24T04:29:56.650Z,100861.00
2022-10-24T04:33:20.661Z,100851.72
2022-10-24T04:36:54.824Z,100835.97
2022-10-24T04:39:58.399Z,100841.81
2022-10-24T04:43:06.693Z,100831.81
2022-10-24T04:46:13.436Z,100835.97
2022-10-24T04:49:17.536Z,100824.44
2022-10-24T04:52:21.221Z,100830.31
2022-10-24T04:55:32.013Z,100833.03
2022-10-24T04:58:38.062Z,100822.34
2022-10-24T05:01:55.075Z,100830.31
2022-10-24T05:05:07.020Z,100833.53
2022-10-24T05:08:11.451Z,100822.25
2022-10-24T05:11:23.429Z,100818.50
2022-10-24T05:14:45.325Z,100822.13
2022-10-24T05:18:08.629Z,100831.00
2022-10-24T05:21:37.489Z,100844.44
2022-10-24T05:24:55.690Z,100858.75
2022-10-24T05:28:13.368Z,100860.47
2022-10-24T05:35:03.770Z,100864.19
2022-10-24T05:38:28.282Z,100867.53
2022-10-24T05:41:44.791Z,100864.44
2022-10-24T05:48:47.977Z,100882.38
2022-10-24T05:52:44.701Z,100880.16
2022-10-24T05:56:06.883Z,100879.25
2022-10-24T05:59:14.498Z,100875.72
2022-10-24T06:02:27.351Z,100887.22
2022-10-24T06:05:50.239Z,100901.03
2022-10-24T06:09:09.022Z,100907.31
2022-10-24T06:12:14.116Z,100911.13
2022-10-24T06:15:42.370Z,100910.03
2022-10-24T06:19:09.213Z,100913.66
2022-10-24T06:22:34.435Z,100920.22
2022-10-24T06:25:57.990Z,100914.78
2022-10-24T06:29:05.420Z,100916.78
2022-10-24T06:32:21.321Z,100910.44
2022-10-24T06:35:31.224Z,100906.91
2022-10-24T06:38:47.509Z,100907.50
2022-10-24T06:42:08.911Z,100907.59
2022-10-24T06:45:12.843Z,100910.84
2022-10-24T06:48:36.453Z,100901.56
2022-10-24T06:51:51.945Z,100894.09
2022-10-24T06:59:49.465Z,100878.25
2022-10-24T07:03:17.121Z,100873.41
2022-10-24T07:06:46.634Z,100874.72
2022-10-24T07:10:34.995Z,100888.03
2022-10-24T07:13:44.956Z,100891.16
2022-10-24T07:16:50.099Z,100893.88
2022-10-24T07:19:55.293Z,100909.69
2022-10-24T07:23:05.294Z,100924.34
2022-10-24T07:26:16.916Z,100931.13
2022-10-24T07:29:27.964Z,100945.91
2022-10-24T07:32:41.704Z,100952.19
2022-10-24T07:35:53.599Z,100950.84
2022-10-24T07:39:10.512Z,100938.34
2022-10-24T07:42:33.110Z,100921.13
2022-10-24T07:49:05.168Z,100922.28
2022-10-24T07:52:17.177Z,100920.19
2022-10-24T07:55:21.924Z,100914.63
2022-10-24T07:58:38.241Z,100914.31
2022-10-24T08:01:41.776Z,100916.34
2022-10-24T08:04:45.055Z,100934.09
2022-10-24T08:08:11.913Z,100927.03
2022-10-24T08:16:49.260Z,100925.50
2022-10-24T08:20:12.930Z,100925.41
2022-10-24T08:24:15.856Z,100906.06
2022-10-24T08:28:11.163Z,100912.19
2022-10-24T08:43:11.655Z,100893.09
2022-10-24T08:51:09.951Z,100882.19
2022-10-24T08:54:54.928Z,100882.88
2022-10-24T08:58:48.042Z,100860.69
2022-10-24T09:02:29.642Z,100854.13
2022-10-24T09:06:13.420Z,100862.81
2022-10-24T09:09:52.316Z,100876.50
2022-10-24T09:13:17.440Z,100879.53
2022-10-24T09:16:23.629Z,100880.53
2022-10-24T09:20:04.713Z,100887.53
2022-10-24T09:23:22.675Z,100883.69
2022-10-24T09:31:56.762Z,100891.66
2022-10-24T09:36:18.124Z,100896.81
2022-10-24T09:40:50.222Z,100898.84
2022-10-24T09:48:44.130Z,100916.81
2022-10-24T09:52:25.028Z,100907.72
2022-10-24T09:55:35.035Z,100930.25
2022-10-24T09:58:40.558Z,100920.94
2022-10-24T10:02:12.887Z,100911.75
2022-10-24T10:05:20.222Z,100909.53
2022-10-24T10:09:11.057Z,100911.75
2022-10-24T10:12:36.758Z,100914.50
2022-10-24T10:15:46.946Z,100909.53
2022-10-24T10:19:25.078Z,100897.81
2022-10-24T10:23:20.371Z,100898.00
2022-10-24T10:26:46.565Z,100887.22
2022-10-24T10:30:28.635Z,100885.38
2022-10-24T10:34:44.351Z,100895.72
2022-10-24T10:38:11.351Z,100880.16
2022-10-24T10:41:48.964Z,100869.09
2022-10-24T10:45:43.800Z,100876.97
2022-10-24T10:49:59.344Z,100875.09
2022-10-24T10:53:32.538Z,100868.03
2022-10-24T11:07:59.533Z,100850.72
2022-10-24T11:11:28.977Z,100856.72
2022-10-24T11:15:02.773Z,100844.09
2022-10-24T11:18:43.855Z,100849.19
2022-10-24T11:23:02.084Z,100855.25
2022-10-24T11:26:52.791Z,100860.78
2022-10-24T11:30:49.128Z,100856.06
2022-10-24T11:34:32.375Z,100846.50
2022-10-24T11:37:48.603Z,100846.59
2022-10-24T11:41:30.798Z,100813.56
2022-10-24T11:45:25.090Z,100825.69
2022-10-24T11:49:04.376Z,100841.09
2022-10-24T11:52:37.114Z,100836.53
2022-10-24T12:06:34.389Z,100828.84
2022-10-24T12:10:44.680Z,100821.72
2022-10-24T12:14:30.016Z,100822.22
2022-10-24T12:22:56.069Z,100816.03
2022-10-24T12:26:36.392Z,100801.03
2022-10-24T12:29:43.926Z,100796.66
2022-10-24T12:32:51.165Z,100800.34
2022-10-24T12:36:46.235Z,100804.03
2022-10-24T12:40:41.903Z,100797.88
2022-10-24T12:44:30.921Z,100798.38
2022-10-24T12:48:11.430Z,100790.31
2022-10-24T13:02:19.118Z,100770.41
2022-10-24T13:10:57.611Z,100759.78
2022-10-24T13:14:43.082Z,100760.28
2022-10-24T13:18:24.274Z,100768.06
2022-10-24T13:21:46.728Z,100769.28
2022-10-24T13:25:05.023Z,100758.19
2022-10-24T13:28:30.221Z,100753.09
2022-10-24T13:31:50.109Z,100753.03
2022-10-24T13:35:15.359Z,100750.47
2022-10-24T13:38:38.129Z,100745.00
2022-10-24T13:41:57.893Z,100751.44
2022-10-24T13:45:29.726Z,100741.84
2022-10-24T13:48:39.316Z,100749.22
2022-10-24T13:51:53.481Z,100745.00
2022-10-24T13:55:32.176Z,100760.75
2022-10-24T13:58:44.674Z,100755.22
2022-10-24T14:02:04.325Z,100748.66
2022-10-24T14:05:33.598Z,100747.41
2022-10-24T14:09:02.750Z,100750.94
2022-10-24T14:12:22.286Z,100741.94
2022-10-24T14:15:35.568Z,100738.09
2022-10-24T14:18:46.485Z,100741.16
2022-10-24T14:22:06.350Z,100745.97
2022-10-24T14:25:33.298Z,100748.22
2022-10-24T14:28:46.408Z,100736.16
2022-10-24T14:32:18.201Z,100723.13
2022-10-24T14:35:39.584Z,100737.72
2022-10-24T14:39:00.021Z,100744.63
2022-10-24T14:42:24.153Z,100745.91
2022-10-24T14:45:51.545Z,100742.75
2022-10-24T14:49:21.236Z,100746.06
2022-10-24T14:52:44.503Z,100740.28
2022-10-24T14:55:56.144Z,100736.75
2022-10-24T14:59:26.204Z,100733.34
2022-10-24T15:02:42.985Z,100736.56
2022-10-24T15:05:58.524Z,100735.63
2022-10-24T15:09:17.139Z,100735.13
2022-10-24T15:13:16.277Z,100740.44
2022-10-24T15:17:00.895Z,100742.84
2022-10-24T15:20:21.041Z,100734.50
2022-10-24T15:23:31.681Z,100730.63
2022-10-24T15:26:56.890Z,100741.38
2022-10-24T15:30:28.748Z,100733.03
2022-10-24T15:33:49.872Z,100735.56
2022-10-24T15:37:07.149Z,100727.38
2022-10-24T15:40:24.729Z,100721.63
2022-10-24T15:43:34.968Z,100724.16
2022-10-24T15:46:58.906Z,100719.50
2022-10-24T15:50:31.078Z,100715.94
2022-10-24T15:53:53.646Z,100714.31
2022-10-24T15:57:18.100Z,100718.69
2022-10-24T16:00:41.889Z,100719.06
2022-10-24T16:03:45.006Z,100720.28
2022-10-24T16:06:54.733Z,100719.38
2022-10-24T16:09:59.616Z,100710.69
2022-10-24T16:13:06.517Z,100729.13
2022-10-24T16:16:15.829Z,100725.91
2022-10-24T16:19:19.225Z,100725.59
2022-10-24T16:22:34.081Z,100728.59
2022-10-24T16:25:51.595Z,100727.81
2022-10-24T16:29:14.609Z,100728.59
2022-10-24T16:32:37.804Z,100735.50
2022-10-24T16:36:01.757Z,100736.00
2022-10-24T16:39:05.054Z,100744.03
2022-10-24T16:42:24.116Z,100754.97
2022-10-24T16:46:03.736Z,100741.78
2022-10-24T16:49:27.663Z,100744.66
2022-10-24T16:52:49.655Z,100738.88
2022-10-24T16:56:12.937Z,100740.00
2022-10-24T16:59:34.897Z,100743.03
2022-10-24T17:02:56.751Z,100733.72
2022-10-24T17:06:18.748Z,100731.75
2022-10-24T17:09:41.687Z,100723.84
2022-10-24T17:13:05.674Z,100719.81
2022-10-24T17:16:27.742Z,100723.66
2022-10-24T17:19:51.758Z,100722.03
2022-10-24T17:23:08.735Z,100733.28
2022-10-24T17:26:19.601Z,100735.53
2022-10-24T17:29:28.967Z,100731.97
2022-10-24T17:32:37.074Z,100732.78
2022-10-24T17:36:01.394Z,100728.72
2022-10-24T17:39:20.687Z,100742.19
2022-10-24T17:42:30.350Z,100732.72
2022-10-24T17:45:47.636Z,100724.53
2022-10-24T17:49:11.005Z,100725.41
2022-10-24T17:52:37.648Z,100726.88
2022-10-24T17:56:06.332Z,100725.31
2022-10-24T17:59:31.861Z,100734.56
2022-10-24T18:03:10.594Z,100741.25
2022-10-24T18:06:15.211Z,100740.03
2022-10-24T18:09:39.153Z,100732.91
2022-10-24T18:16:22.078Z,100736.47
2022-10-24T18:19:32.261Z,100732.34
2022-10-24T18:22:57.534Z,100723.25
2022-10-24T18:26:12.217Z,100733.47
2022-10-24T18:29:19.034Z,100726.22
2022-10-24T18:32:22.685Z,100713.81
2022-10-24T18:35:33.296Z,100711.97
2022-10-24T18:38:41.653Z,100709.88
2022-10-24T18:42:14.873Z,100713.50
2022-10-24T18:45:21.512Z,100713.91
2022-10-24T18:48:26.219Z,100704.03
2022-10-24T18:51:56.560Z,100710.09
2022-10-24T18:55:23.652Z,100699.41
2022-10-24T18:58:29.058Z,100690.13
2022-10-24T19:02:04.216Z,100691.13
2022-10-24T19:05:54.803Z,100675.47
2022-10-24T19:09:35.480Z,100675.09
2022-10-24T19:12:58.391Z,100678.13
2022-10-24T19:16:20.513Z,100693.56
2022-10-24T19:19:46.334Z,100693.75
2022-10-24T19:23:06.180Z,100681.63
2022-10-24T19:26:20.016Z,100678.19
2022-10-24T19:29:45.511Z,100675.88
2022-10-24T19:33:22.401Z,100672.59
2022-10-24T19:36:39.563Z,100676.78
2022-10-24T19:39:50.973Z,100680.09
2022-10-24T19:43:15.397Z,100675.59
2022-10-24T19:46:25.944Z,100682.13
2022-10-24T19:49:42.444Z,100678.91
2022-10-24T19:56:29.177Z,100680.22
2022-10-24T19:59:45.318Z,100689.69
2022-10-24T20:03:08.984Z,100678.81
2022-10-24T20:06:13.820Z,100675.69
2022-10-24T20:09:20.719Z,100655.22
2022-10-24T20:12:36.353Z,100629.63
2022-10-24T20:16:01.385Z,100644.53
2022-10-24T20:19:21.284Z,100648.59
2022-10-24T20:22:43.864Z,100659.34
2022-10-24T20:26:09.352Z,100656.44
2022-10-24T20:29:26.243Z,100659.28
2022-10-24T20:32:46.400Z,100658.06
2022-10-24T20:36:02.338Z,100658.25
2022-10-24T20:39:12.137Z,100650.78
2022-10-24T20:42:24.945Z,100648.69
2022-10-24T20:45:38.569Z,100646.97
2022-10-24T20:49:01.970Z,100649.78
2022-10-24T20:52:25.174Z,100643.13
2022-10-24T20:55:46.090Z,100644.94
2022-10-24T20:59:09.176Z,100640.19
2022-10-24T21:02:30.372Z,100652.69
2022-10-24T21:05:35.356Z,100657.00
2022-10-24T21:08:39.150Z,100654.09
2022-10-24T21:11:41.939Z,100664.19
2022-10-24T21:14:48.692Z,100656.22
2022-10-24T21:17:52.355Z,100665.28
2022-10-24T21:21:14.134Z,100654.22
2022-10-24T21:24:28.403Z,100658.41
2022-10-24T21:27:31.803Z,100652.34
2022-10-24T21:30:48.166Z,100664.19
2022-10-24T21:34:20.136Z,100658.91
2022-10-24T21:37:55.113Z,100666.16
2022-10-24T21:41:19.086Z,100666.34
2022-10-24T21:44:42.024Z,100668.28
2022-10-24T21:48:05.092Z,100670.06
2022-10-24T21:51:28.218Z,100670.38
2022-10-24T21:54:47.995Z,100685.41
2022-10-24T21:58:13.989Z,100687.97
2022-10-24T22:01:34.207Z,100687.16
2022-10-24T22:04:50.085Z,100688.34
2022-10-24T22:08:13.136Z,100695.41
2022-10-24T22:11:41.268Z,100687.03
2022-10-24T22:15:01.165Z,100686.84
2022-10-24T22:18:17.561Z,100678.16
2022-10-24T22:21:48.993Z,100679.28
2022-10-24T22:25:12.045Z,100670.31
2022-10-24T22:28:25.108Z,100668.69
2022-10-24T22:31:45.953Z,100673.03
2022-10-24T22:35:05.956Z,100662.31
2022-10-24T22:38:25.023Z,100676.28
2022-10-24T22:41:44.908Z,100684.97
2022-10-24T22:44:52.557Z,100688.13
2022-10-24T22:48:08.304Z,100676.22
2022-10-24T22:51:20.994Z,100680.75
2022-10-24T22:54:40.103Z,100687.63
2022-10-24T22:57:57.976Z,100692.66
2022-10-24T23:01:54.280Z,100689.84
2022-10-24T23:05:23.490Z,100690.16
2022-10-24T23:08:44.180Z,100689.13
2022-10-24T23:12:00.158Z,100685.41
2022-10-24T23:15:07.885Z,100673.22
2022-10-24T23:18:17.042Z,100680.16
2022-10-24T23:21:42.076Z,100676.31
2022-10-24T23:25:00.107Z,100675.03
2022-10-24T23:28:34.644Z,100656.56
2022-10-24T23:31:49.816Z,100639.09
2022-10-24T23:35:08.658Z,100645.84
2022-10-24T23:38:20.762Z,100651.94
2022-10-24T23:41:44.213Z,100654.84
2022-10-24T23:44:59.741Z,100646.34
2022-10-24T23:49:01.357Z,100638.19
2022-10-24T23:52:26.061Z,100625.19
2022-10-24T23:55:32.447Z,100625.50
2022-10-24T23:58:45.801Z,100613.41
